Terminal Aerodrome Forecast
Issued by NWS

Home | Current Version | Previous Version | Text Only | Print | Product List | Glossary Off
Versions: 1 2 3 4 5 6 7 8 9 10 11 12 13 14 15 16 17 18 19 20 21 22 23 24 25 26

110
FTUS43 KBIS 032335
TAFJMS
TAF
KJMS 032335Z 0400/0424 16013KT P6SM SCT007 OVC015
      TEMPO 0400/0402 BKN007 OVC012
     FM040200 17011KT P6SM OVC010
     FM040500 18011KT P6SM -SN SCT015 OVC035
      TEMPO 0405/0407 2SM -SN BR OVC015
     FM040700 21009KT P6SM VCSH OVC015
     FM041000 25009KT P6SM OVC015
     FM041500 28012KT P6SM BKN008 OVC015
     FM042000 27010KT P6SM SCT025 BKN100=

USA.gov is the U.S. government's official web portal to all federal, state and local government web resources and services.